• Join FlightAware (Why Join?)
  • Login
  • US Flag 
04:03AM EST


 

Airport Tracker/Info


-or-


 

Live Flight TrackerFlight Track Log ✈ TAM3213 ✈ 10-May-2013 ✈ SBCF / CNF - SBSP / CGH

Flight Track Log - Related Links

Times and Time Zones

All times are in EDT time to prevent confusion due to time zone crossing. See the TAM3213 flight status page for this flight to view local times or setup timezone preferences in your user account.

Time Position Orientation Groundspeed Altitude Reporting Facility
EDT Latitude Longitude Course Direction KTS MPH feet Rate Location/Type
08:41AM -19.8680 -44.3830 226° Southwest 409 471 21,400  Level FlightAware
08:42AM -19.9510 -44.4740 226° Southwest 407 468 23,700 1,943 Climbing FlightAware
08:42AM -20.0040 -44.5320 226° Southwest 414 476 24,800 847 Climbing FlightAware
08:43AM -20.0610 -44.5940 226° Southwest 414 476 24,900 1,482 Climbing FlightAware
08:44AM -20.1070 -44.6730 238° Southwest 429 494 26,900 2,259 Climbing FlightAware
08:45AM -20.1580 -44.7470 234° Southwest 431 496 28,100 1,385 Climbing FlightAware
08:46AM -20.2650 -44.8930 232° Southwest 442 509 29,900 1,240 Climbing FlightAware
08:47AM -20.3470 -45.0080 233° Southwest 451 519 31,200 1,071 Climbing FlightAware
08:48AM -20.4380 -45.1360 233° Southwest 452 520 32,400 1,431 Climbing FlightAware
08:49AM -20.5080 -45.2340 233° Southwest 434 499 34,300 2,274 Climbing FlightAware
08:50AM -20.5530 -45.2970 233° Southwest 415 478 36,000 703 Climbing FlightAware
08:52AM -20.6730 -45.4660 233° Southwest 429 494 36,000  Level FlightAware
08:52AM -20.7140 -45.5230 232° Southwest 429 494 36,000  Level FlightAware
08:53AM -20.7540 -45.5810 234° Southwest 429 494 36,000  Level FlightAware
08:54AM -20.7950 -45.6390 233° Southwest 429 494 36,000  Level FlightAware
08:54AM -20.8460 -45.7110 233° Southwest 429 494 36,000  Level FlightAware
08:55AM -20.8860 -45.7680 233° Southwest 429 494 36,000  Level FlightAware
08:58AM -21.0421 -45.8176 197° South  Level Estimated
08:58AM -21.1350 -46.1200 197° South 436 502 36,000  Level FlightAware
08:59AM -21.2410 -46.2510 229° Southwest 438 504 36,000  Level FlightAware
09:00AM -21.3460 -46.3540 222° Southwest 437 503 36,000  Level FlightAware
09:01AM -21.4130 -46.4210 223° Southwest 437 503 36,000  Level FlightAware
09:02AM -21.4700 -46.4770 222° Southwest 438 504 36,000  Level FlightAware
09:03AM -21.5330 -46.5390 222° Southwest 438 504 36,000  Level FlightAware
09:03AM -21.5990 -46.6040 222° Southwest 439 505 36,000  Level FlightAware
09:04AM -21.6580 -46.6630 223° Southwest 440 506 36,000  Level FlightAware
09:05AM -21.7160 -46.7210 223° Southwest 440 506 36,000  Level FlightAware
09:05AM -21.7760 -46.7950 229° Southwest 424 488 36,000  Level FlightAware
09:06AM -21.8060 -46.8730 247° West 398 458 36,000  Level FlightAware
09:07AM -21.8370 -46.9540 248° West 398 458 36,000  Level FlightAware
09:07AM -21.8650 -47.0290 248° West 400 460 36,000  Level FlightAware
09:08AM -21.8970 -47.1120 247° West 401 461 36,000  Level FlightAware
09:09AM -21.9260 -47.1890 248° West 403 464 36,000  Level FlightAware
09:10AM -21.9540 -47.2620 248° West 402 463 36,000  Level FlightAware
09:10AM -21.9860 -47.3450 247° West 401 461 36,000  Level FlightAware
09:11AM -22.0270 -47.4130 237° Southwest 404 465 36,000  Level FlightAware
09:12AM -22.0960 -47.4720 218° Southwest 425 489 36,000  Level FlightAware
09:12AM -22.1620 -47.5250 217° Southwest 448 516 36,000  Level FlightAware
09:13AM -22.2260 -47.5780 217° Southwest 444 511 36,000 -1,271 Level FlightAware
09:14AM -22.3030 -47.6350 214° Southwest 445 512 34,200 -2,250 Descending FlightAware
09:14AM -22.3740 -47.6510 192° South 451 519 33,000 -3,000 Descending FlightAware
09:15AM -22.4710 -47.6330 170° South 464 534 30,200 -4,306 Descending FlightAware
09:16AM -22.5620 -47.6140 169° South 477 549 26,900 -4,725 Descending FlightAware
09:16AM -22.6500 -47.5950 169° South 479 551 23,900 -3,106 Descending FlightAware
09:17AM -22.7410 -47.5760 169° South 442 509 22,500 -1,140 Descending FlightAware
09:18AM -22.8310 -47.5360 158° South 372 428 22,000 -568 Descending FlightAware
09:19AM -22.8810 -47.4880 139° Southeast 345 397 21,600 -1,129 Descending FlightAware
09:20AM -22.9350 -47.4380 140° Southeast 327 376 20,400 -1,765 Descending FlightAware
09:20AM -22.9810 -47.3960 140° Southeast 324 373 19,100 -1,575 Descending FlightAware
09:21AM -23.0280 -47.3520 139° Southeast 307 353 18,300 -1,059 Descending FlightAware
09:22AM -23.0760 -47.3070 139° Southeast 284 327 17,600 -1,129 Descending FlightAware
09:22AM -23.1140 -47.2720 140° Southeast 281 323 16,700 -1,482 Descending FlightAware
09:23AM -23.1560 -47.2330 140° Southeast 286 329 15,500 -1,553 Descending FlightAware
09:24AM -23.1970 -47.1950 140° Southeast 285 328 14,500 -1,725 Descending FlightAware
09:24AM -23.2420 -47.1530 139° Southeast 269 310 13,200 -1,624 Descending FlightAware
09:25AM -23.2850 -47.1130 139° Southeast 258 297 12,200 -1,059 Descending FlightAware
09:26AM -23.3190 -47.0820 140° Southeast 240 276 11,700 -988 Descending FlightAware
09:27AM -23.3590 -47.0460 140° Southeast 240 276 10,800 -1,271 Descending FlightAware
09:27AM -23.3920 -47.0140 138° Southeast 238 274 9,900 -1,200 Descending FlightAware
09:27AM -23.4030 -47.0040 140° Southeast 234 269 9,700 -1,050 Descending FlightAware
09:28AM -23.4240 -46.9840 139° Southeast 232 267 9,200 -1,309 Descending FlightAware
09:28AM -23.4490 -46.9600 139° Southeast 233 268 8,500 -1,200 Descending FlightAware
09:29AM -23.4730 -46.9370 139° Southeast 226 260 8,000 -900 Descending FlightAware
09:29AM -23.4800 -46.9300 137° Southeast 222 255 7,900 -1,440 Descending FlightAware
09:29AM -23.4870 -46.9150 117° Southeast 218 251 7,400 -1,733 Descending FlightAware
09:30AM -23.4860 -46.8830 88° East 224 258 6,600 -1,200 Descending FlightAware
09:30AM -23.4840 -46.8550 86° East 217 250 6,300 -655 Descending FlightAware
09:31AM -23.4820 -46.8240 86° East 198 228 6,000 -700 Descending FlightAware
09:31AM -23.4810 -46.7940 88° East 188 216 5,600 -655 Descending FlightAware
09:32AM -23.4790 -46.7720 84° East 171 197 5,400 -436 Descending FlightAware
09:32AM -23.4890 -46.7510 117° Southeast 166 191 5,200 -667 Descending FlightAware
09:32AM -23.4990 -46.7450 151° Southeast 168 193 4,900 -857 Descending FlightAware
09:33AM -23.5100 -46.7370 146° Southeast 165 190 4,700 -655 Descending FlightAware
09:33AM -23.5290 -46.7240 148° Southeast 151 174 4,300 -700 Descending FlightAware
09:34AM -23.5440 -46.7140 149° Southeast 146 168 4,000 -764 Descending FlightAware
09:34AM -23.5610 -46.7020 147° Southeast 140 161 3,600 -700 Descending FlightAware
09:35AM -23.5740 -46.6930 148° Southeast 138 159 3,300 -655 Descending FlightAware
09:35AM -23.5900 -46.6820 148° Southeast 136 157 3,000 -764 Descending FlightAware
09:36AM -23.6070 -46.6700 147° Southeast 134 154 2,600 -655 Descending FlightAware
09:36AM -23.6150 -46.6650 150° Southeast 133 153 2,400 -514 Descending FlightAware
09:36AM -23.6230 -46.6590 146° Southeast 134 154 2,300 -171 Descending FlightAware
09:37AM -23.6350 -46.6510 149° Southeast 134 154 2,300  Level FlightAware
09:39AM -23.6267 -46.6554 334° Northwest  Level Estimated
09:40AM -23.6267 -46.6554 114° Southeast  Level Estimated
09:41AM -23.6267 -46.6554 114° Southeast  Level Estimated
09:42AM -23.6267 -46.6554 114° Southeast  Level Estimated
09:43AM -23.6267 -46.6554 114° Southeast  Level Estimated
09:44AM -23.6267 -46.6554 114° Southeast  Level Estimated
09:45AM -23.6267 -46.6554 114° Southeast  Level Estimated
09:46AM -23.6267 -46.6554 114° Southeast  Level Estimated
09:47AM -23.6267 -46.6554 114° Southeast  Level Estimated